Dades meteomassalio
Diari Summary for Marc 6, 2017 Units:  Metric    English   Both
« Previous Day
Next Day »
Diari Semanal Mensual Anual Personalitzat
  Maxima: Minima: Mijana:
Temperatura: -17.8 °C -13.3 °C -10 °C
Rosada: -17.8 °C -15.7 °C -13.6 °C
Humitat: Humidity % 39 % 67 %
Velocitat del vent: 0 km/h 0 km/h 34.8 km/h
Racha vent: 0 km/h - -
Vent:- - NW
Pressio: 0 hPa 34496.6 hPa -
Pluja: 0 mm    
Historical Graphs
 
 
Tabular Data for Marc 6, 2017
Time Temperature Dew Point Pressure Wind Wind Speed Wind Gust Humidity Rainfall Rate (Hourly) solar Conditions
-17.8 °C -17.8 °C 0 hPa Calm     Humidity % 0 mm SolarRadiationWatts/m^2 W/m2 Conditions
00:00 -12.4 °C -13.4 °C 34554.1 hPa Calm     88 % 0 mm 0.0 W/m2 CLR
00:05 -12.4 °C -13.4 °C 34554.1 hPa Calm     88 % 0 mm 0.0 W/m2 CLR
00:10 -12.4 °C -13.5 °C 34554.1 hPa Calm     88 % 0 mm 0.0 W/m2 CLR
00:15 -12.4 °C -13.4 °C 34554.1 hPa Calm     89 % 0 mm 0.0 W/m2 CLR
00:20 -12.4 °C -13.4 °C 34554.1 hPa Calm     89 % 0 mm 0.0 W/m2 CLR
00:25 -12.4 °C -13.4 °C 34554.1 hPa Calm     89 % 0 mm 0.0 W/m2 CLR
00:30 -12.4 °C -13.4 °C 34554.1 hPa Calm     89 % 0 mm 0.0 W/m2 CLR
00:35 -12.4 °C -13.4 °C 34544 hPa Calm     89 % 0 mm 0.0 W/m2 CLR
00:40 -12.5 °C -13.4 °C 34544 hPa Calm     89 % 0 mm 0.0 W/m2 CLR
00:45 -12.6 °C -13.5 °C 34544 hPa Calm     89 % 0 mm 0.0 W/m2 CLR
00:50 -12.6 °C -13.5 °C 34544 hPa Calm     89 % 0 mm 0.0 W/m2 CLR
00:55 -12.6 °C -13.5 °C 34544 hPa Calm     89 % 0 mm 0.0 W/m2 CLR
01:00 -12.6 °C -13.5 °C 34544 hPa Calm     89 % 0 mm 0.0 W/m2 CLR
01:05 -12.6 °C -13.6 °C 34544 hPa Calm     89 % 0 mm 0.0 W/m2 CLR
01:10 -12.7 °C -13.6 °C 34544 hPa Calm     89 % 0 mm 0.0 W/m2 CLR
01:15 -12.7 °C -13.5 °C 34544 hPa Calm     90 % 0 mm 0.0 W/m2 CLR
01:20 -12.6 °C -13.5 °C 34533.8 hPa Calm     90 % 0 mm 0.0 W/m2 CLR
01:25 -12.6 °C -13.5 °C 34533.8 hPa Calm     90 % 0 mm 0.0 W/m2 CLR
01:30 -12.7 °C -13.5 °C 34533.8 hPa Calm     90 % 0 mm 0.0 W/m2 CLR
01:35 -12.7 °C -13.5 °C 34533.8 hPa Calm     90 % 0 mm 0.0 W/m2 CLR
01:40 -12.7 °C -13.5 °C 34533.8 hPa Calm     90 % 0 mm 0.0 W/m2 CLR
01:45 -12.7 °C -13.5 °C 34533.8 hPa Calm     90 % 0 mm 0.0 W/m2 CLR
01:50 -12.7 °C -13.5 °C 34533.8 hPa Calm     90 % 0 mm 0.0 W/m2 CLR
01:55 -12.7 °C -13.6 °C 34533.8 hPa Calm     90 % 0 mm 0.0 W/m2 CLR
02:00 -12.7 °C -13.4 °C 34533.8 hPa Calm     91 % 0 mm 0.0 W/m2 CLR
02:05 -12.6 °C -13.4 °C 34533.8 hPa Calm     91 % 0 mm 0.0 W/m2 CLR
02:10 -12.6 °C -13.4 °C 34520.3 hPa Calm     90 % 0 mm 0.0 W/m2 CLR
02:15 -12.6 °C -13.4 °C 34520.3 hPa Calm     90 % 0 mm 0.0 W/m2 CLR
02:20 -12.6 °C -13.4 °C 34520.3 hPa Calm     90 % 0 mm 0.0 W/m2 CLR
02:25 -12.6 °C -13.4 °C 34520.3 hPa Calm     90 % 0 mm 0.0 W/m2 CLR
02:30 -12.6 °C -13.4 °C 34520.3 hPa Calm     90 % 0 mm 0.0 W/m2 CLR
02:35 -12.6 °C -13.4 °C 34520.3 hPa Calm     90 % 0 mm 0.0 W/m2 CLR
02:40 -12.5 °C -13.4 °C 34520.3 hPa Calm     90 % 0 mm 0.0 W/m2 CLR
02:45 -12.4 °C -13.3 °C 34520.3 hPa Calm     90 % 0 mm 0.0 W/m2 CLR
02:50 -12.5 °C -13.4 °C 34520.3 hPa Calm     90 % 0 mm 0.0 W/m2 CLR
02:55 -12.6 °C -13.4 °C 34520.3 hPa Calm     90 % 0 mm 0.0 W/m2 CLR
03:00 -12.6 °C -13.4 °C 34520.3 hPa WSW 9 km/h 9 km/h 90 % 0 mm 0.0 W/m2 CLR
03:05 -12.4 °C -13.3 °C 34520.3 hPa Calm     90 % 0 mm 0.0 W/m2 CLR
03:10 -12.2 °C -13.1 °C 34520.3 hPa Calm     90 % 0 mm 0.0 W/m2 CLR
03:15 -12.1 °C -13.1 °C 34520.3 hPa Calm     89 % 0 mm 0.0 W/m2 CLR
03:20 -12.2 °C -13.2 °C 34520.3 hPa Calm     88 % 0 mm 0.0 W/m2 CLR
03:25 -12.2 °C -13.2 °C 34510.1 hPa Calm     88 % 0 mm 0.0 W/m2 CLR
03:30 -12.3 °C -13.3 °C 34510.1 hPa Calm     88 % 0 mm 0.0 W/m2 CLR
03:35 -12.3 °C -13.3 °C 34510.1 hPa Calm     88 % 0 mm 0.0 W/m2 CLR
03:40 -12.3 °C -13.4 °C 34510.1 hPa Calm     88 % 0 mm 0.0 W/m2 CLR
03:45 -12.3 °C -13.2 °C 34510.1 hPa Calm     89 % 0 mm 0.0 W/m2 CLR
03:50 -12.2 °C -13.2 °C 34510.1 hPa Calm     88 % 0 mm 0.0 W/m2 CLR
03:56 -12.2 °C -13.3 °C 34496.6 hPa WSW 11.9 km/h 11.9 km/h 88 % 0 mm 0.0 W/m2 CLR
04:01 -12.3 °C -13.5 °C 34496.6 hPa WSW 9 km/h 9 km/h 87 % 0 mm 0.0 W/m2 CLR
04:06 -12.3 °C -13.4 °C 34496.6 hPa Calm     88 % 0 mm 0.0 W/m2 CLR
04:11 -12.1 °C -13.2 °C 34496.6 hPa Calm     88 % 0 mm 0.0 W/m2 CLR
04:16 -12 °C -13.1 °C 34496.6 hPa Calm     87 % 0 mm 0.0 W/m2 CLR
04:21 -11.9 °C -13.2 °C 34496.6 hPa Calm     86 % 0 mm 0.0 W/m2 CLR
04:26 -12 °C -13.2 °C 34496.6 hPa Calm     86 % 0 mm 0.0 W/m2 CLR
04:31 -12 °C -13.2 °C 34496.6 hPa Calm     86 % 0 mm 0.0 W/m2 CLR
04:36 -11.9 °C -13.1 °C 34496.6 hPa WSW 10.3 km/h 10.3 km/h 86 % 0 mm 0.0 W/m2 CLR
04:41 -11.8 °C -13.2 °C 34496.6 hPa WSW 9 km/h 9 km/h 85 % 0 mm 0.0 W/m2 CLR
04:46 -12.1 °C -13.5 °C 34496.6 hPa WSW 9 km/h 9 km/h 84 % 0 mm 0.0 W/m2 CLR
04:51 -12.3 °C -13.7 °C 34496.6 hPa SW 9 km/h 9 km/h 85 % 0 mm 0.0 W/m2 CLR
04:56 -12.6 °C -13.8 °C 34496.6 hPa Calm     86 % 0 mm 0.0 W/m2 CLR
05:01 -12.7 °C -13.8 °C 34496.6 hPa Calm     87 % 0 mm 0.0 W/m2 CLR
05:06 -12.8 °C -13.8 °C 34496.6 hPa Calm     88 % 0 mm 0.0 W/m2 CLR
05:11 -12.9 °C -13.9 °C 34496.6 hPa Calm     88 % 0 mm 0.0 W/m2 CLR
05:16 -12.8 °C -13.8 °C 34496.6 hPa Calm     89 % 0 mm 0.0 W/m2 CLR
05:21 -12.7 °C -13.7 °C 34496.6 hPa Calm     89 % 0 mm 0.0 W/m2 CLR
05:26 -12.8 °C -13.8 °C 34496.6 hPa Calm     88 % 0 mm 0.0 W/m2 CLR
05:31 -12.9 °C -13.9 °C 34496.6 hPa Calm     88 % 0 mm 0.0 W/m2 CLR
05:36 -12.9 °C -13.9 °C 34496.6 hPa Calm     89 % 0 mm 0.0 W/m2 CLR
05:41 -12.9 °C -13.8 °C 34496.6 hPa Calm     89 % 0 mm 0.0 W/m2 CLR
05:46 -12.9 °C -13.8 °C 34496.6 hPa Calm     89 % 0 mm 0.0 W/m2 CLR
05:51 -12.9 °C -13.8 °C 34496.6 hPa Calm     89 % 0 mm 0.0 W/m2 CLR
05:56 -12.9 °C -13.8 °C 34496.6 hPa Calm     89 % 0 mm 0.0 W/m2 CLR
06:01 -12.8 °C -13.8 °C 34496.6 hPa Calm     88 % 0 mm 0.0 W/m2 CLR
06:06 -12.7 °C -13.7 °C 34496.6 hPa Calm     89 % 0 mm 0.0 W/m2 CLR
06:11 -12.7 °C -13.8 °C 34496.6 hPa Calm     88 % 0 mm 0.0 W/m2 CLR
06:16 -12.7 °C -13.8 °C 34496.6 hPa Calm     87 % 0 mm 0.0 W/m2 CLR
06:21 -12.7 °C -13.8 °C 34496.6 hPa Calm     87 % 0 mm 0.0 W/m2 CLR
06:26 -12.7 °C -13.8 °C 34496.6 hPa Calm     87 % 0 mm 0.0 W/m2 CLR
06:31 -12.9 °C -14.1 °C 34496.6 hPa Calm     86 % 0 mm 0.0 W/m2 CLR
06:36 -13 °C -14.2 °C 34496.6 hPa Calm     87 % 0 mm 0.0 W/m2 CLR
06:41 -13.1 °C -14.1 °C 34510.1 hPa Calm     88 % 0 mm 0.0 W/m2 CLR
06:46 -13.1 °C -14.2 °C 34510.1 hPa Calm     88 % 0 mm 0.0 W/m2 CLR
06:51 -13.1 °C -14.1 °C 34510.1 hPa Calm     89 % 0 mm 0.0 W/m2 CLR
06:56 -13.1 °C -14.1 °C 34510.1 hPa Calm     89 % 0 mm 0.0 W/m2 CLR
07:01 -13.2 °C -14.3 °C 34510.1 hPa Calm     88 % 0 mm 0.0 W/m2 CLR
07:06 -13.3 °C -14.3 °C 34510.1 hPa Calm     88 % 0 mm 0.0 W/m2 CLR
07:11 -13.3 °C -14.2 °C 34510.1 hPa Calm     89 % 0 mm 0.0 W/m2 CLR
07:16 -13 °C -13.8 °C 34510.1 hPa WNW 12.9 km/h 12.9 km/h 90 % 0 mm 0.0 W/m2 OVC
07:21 -12.4 °C -13.4 °C 34510.1 hPa West 11.9 km/h 11.9 km/h 88 % 0 mm 0.0 W/m2 OVC
07:26 -11.9 °C -13.4 °C 34496.6 hPa West 20.8 km/h 20.8 km/h 83 % 0 mm 0.0 W/m2 OVC
07:31 -11.6 °C -13.4 °C 34510.1 hPa WNW 17.9 km/h 17.9 km/h 81 % 0 mm 5.0 W/m2 OVC
07:36 -11.3 °C -13.2 °C 34510.1 hPa West 17.9 km/h 17.9 km/h 79 % 0 mm 14.0 W/m2 BKN
07:41 -11 °C -13.2 °C 34510.1 hPa WNW 26.9 km/h 26.9 km/h 77 % 0 mm 23.0 W/m2 BKN
07:46 -10.9 °C -13.1 °C 34510.1 hPa WNW 29.8 km/h 29.8 km/h 77 % 0 mm 28.0 W/m2 BKN
07:51 -10.8 °C -13.1 °C 34510.1 hPa WNW 29.8 km/h 29.8 km/h 76 % 0 mm 33.0 W/m2 BKN
07:56 -10.7 °C -13.1 °C 34510.1 hPa WNW 15.6 km/h 15.6 km/h 75 % 0 mm 42.0 W/m2 BKN
08:01 -10.6 °C -13.1 °C 34510.1 hPa NW 15.6 km/h 15.6 km/h 74 % 0 mm 51.0 W/m2 SCT
08:06 -10.5 °C -13 °C 34496.6 hPa WNW 17.9 km/h 17.9 km/h 74 % 0 mm 58.0 W/m2 SCT
08:11 -10.4 °C -13 °C 34496.6 hPa WNW 35.7 km/h 35.7 km/h 73 % 0 mm 77.0 W/m2 FEW
08:16 -10.2 °C -12.9 °C 34496.6 hPa WNW 35.7 km/h 35.7 km/h 73 % 0 mm 91.0 W/m2 CLR
08:21 -10.2 °C -12.9 °C 34496.6 hPa WNW 44.1 km/h 44.1 km/h 72 % 0 mm 109.0 W/m2 CLR
08:26 -10.1 °C -12.9 °C 34510.1 hPa WNW 41.7 km/h 41.7 km/h 71 % 0 mm 113.0 W/m2 CLR
08:31 -9.9 °C -12.9 °C 34496.6 hPa NW 32.8 km/h 32.8 km/h 70 % 0 mm 111.0 W/m2 CLR
08:36 -9.8 °C -12.8 °C 34510.1 hPa WNW 35.7 km/h 35.7 km/h 70 % 0 mm 125.0 W/m2 CLR
08:41 -9.8 °C -12.8 °C 34510.1 hPa WNW 26.9 km/h 26.9 km/h 70 % 0 mm 134.0 W/m2 CLR
08:46 -9.7 °C -12.7 °C 34510.1 hPa NW 29.8 km/h 29.8 km/h 70 % 0 mm 149.0 W/m2 CLR
08:51 -9.7 °C -12.8 °C 34510.1 hPa WNW 32.8 km/h 32.8 km/h 69 % 0 mm 167.0 W/m2 CLR
08:56 -9.6 °C -12.7 °C 34520.3 hPa West 29.8 km/h 29.8 km/h 69 % 0 mm 181.0 W/m2 CLR
09:01 -9.6 °C -12.7 °C 34510.1 hPa WNW 31.1 km/h 31.1 km/h 69 % 0 mm 192.0 W/m2 CLR
09:06 -9.6 °C -12.8 °C 34510.1 hPa WNW 29.8 km/h 29.8 km/h 68 % 0 mm 193.0 W/m2 CLR
09:11 -9.5 °C -12.7 °C 34510.1 hPa WNW 32.8 km/h 32.8 km/h 68 % 0 mm 193.0 W/m2 CLR
09:16 -9.4 °C -12.7 °C 34510.1 hPa WNW 35.7 km/h 35.7 km/h 68 % 0 mm 204.0 W/m2 CLR
09:21 -9.4 °C -12.7 °C 34510.1 hPa NW 50.7 km/h 50.7 km/h 68 % 0 mm 227.0 W/m2 CLR
09:26 -9.3 °C -12.6 °C 34520.3 hPa NW 38.8 km/h 38.8 km/h 68 % 0 mm 183.0 W/m2 CLR
09:31 -9.3 °C -12.6 °C 34520.3 hPa NW 41.7 km/h 41.7 km/h 68 % 0 mm 202.0 W/m2 CLR
09:36 -9.3 °C -12.7 °C 34510.1 hPa WNW 47.6 km/h 47.6 km/h 67 % 0 mm 244.0 W/m2 CLR
09:41 -9.3 °C -12.7 °C 34510.1 hPa NW 65.5 km/h 65.5 km/h 67 % 0 mm 160.0 W/m2 CLR
09:46 -9.3 °C -12.6 °C 34510.1 hPa WNW 41.7 km/h 41.7 km/h 68 % 0 mm 255.0 W/m2 CLR
09:51 -9.2 °C -12.6 °C 34520.3 hPa WNW 53.6 km/h 53.6 km/h 67 % 0 mm 278.0 W/m2 CLR
09:56 -9.1 °C -12.6 °C 34510.1 hPa NW 62.6 km/h 62.6 km/h 67 % 0 mm 376.0 W/m2 CLR
10:01 -9 °C -12.7 °C 34520.3 hPa NW 68.6 km/h 68.6 km/h 65 % 0 mm 348.0 W/m2 CLR
10:06 -8.9 °C -12.6 °C 34520.3 hPa NW 71.5 km/h 71.5 km/h 65 % 0 mm 373.0 W/m2 CLR
10:11 -8.8 °C -12.5 °C 34520.3 hPa NW 74.5 km/h 74.5 km/h 65 % 0 mm 457.0 W/m2 CLR
10:16 -8.8 °C -12.6 °C 34520.3 hPa NW 56.6 km/h 56.6 km/h 64 % 0 mm 406.0 W/m2 CLR
10:21 -8.7 °C -12.4 °C 34520.3 hPa WNW 62.6 km/h 62.6 km/h 64 % 0 mm 487.0 W/m2 CLR
10:26 -8.6 °C -12.6 °C 34520.3 hPa NW 68.6 km/h 68.6 km/h 63 % 0 mm 439.0 W/m2 CLR
10:31 -8.6 °C -12.3 °C 34510.1 hPa NW 56.6 km/h 56.6 km/h 64 % 0 mm 425.0 W/m2 CLR
10:37 -8.4 °C -12.4 °C 34520.3 hPa NW 68.6 km/h 68.6 km/h 63 % 0 mm 490.0 W/m2 CLR
10:42 -8.4 °C -12.3 °C 34520.3 hPa NW 68.6 km/h 68.6 km/h 63 % 0 mm 489.0 W/m2 CLR
10:47 -8.3 °C -12.4 °C 34520.3 hPa NW 68.6 km/h 68.6 km/h 62 % 0 mm 455.0 W/m2 CLR
10:52 -8.2 °C -12.3 °C 34520.3 hPa NW 54.4 km/h 54.4 km/h 62 % 0 mm 468.0 W/m2 CLR
10:57 -8.2 °C -12.4 °C 34533.8 hPa WNW 74.5 km/h 74.5 km/h 61 % 0 mm 418.0 W/m2 CLR
11:02 -8.1 °C -12.3 °C 34533.8 hPa WNW 57 km/h 57 km/h 61 % 0 mm 527.0 W/m2 CLR
11:07 -8.1 °C -12.4 °C 34533.8 hPa NW 75.2 km/h 75.2 km/h 60 % 0 mm 580.0 W/m2 CLR
11:12 -7.9 °C -12.2 °C 34533.8 hPa NNW 67.3 km/h 67.3 km/h 61 % 0 mm 573.0 W/m2 CLR
11:17 -7.9 °C -12.3 °C 34533.8 hPa NW 80.5 km/h 80.5 km/h 60 % 0 mm 585.0 W/m2 CLR
11:22 -7.9 °C -12.4 °C 34533.8 hPa NW 71.5 km/h 71.5 km/h 59 % 0 mm 584.0 W/m2 CLR
11:27 -7.9 °C -12.4 °C 34533.8 hPa NW 74.5 km/h 74.5 km/h 59 % 0 mm 580.0 W/m2 CLR
11:32 -7.9 °C -12.3 °C 34544 hPa NW 74.5 km/h 74.5 km/h 60 % 0 mm 589.0 W/m2 CLR
11:37 -7.9 °C -12.3 °C 34533.8 hPa NNW 67.3 km/h 67.3 km/h 60 % 0 mm 622.0 W/m2 CLR
11:42 -7.7 °C -12.1 °C 34533.8 hPa WNW 59.5 km/h 59.5 km/h 60 % 0 mm 598.0 W/m2 CLR
11:47 -7.7 °C -12.3 °C 34533.8 hPa WNW 77.4 km/h 77.4 km/h 59 % 0 mm 619.0 W/m2 CLR
11:52 -7.6 °C -12 °C 34533.8 hPa NW 50.7 km/h 50.7 km/h 60 % 0 mm 652.0 W/m2 CLR
11:57 -7.6 °C -12.1 °C 34533.8 hPa NW 77.4 km/h 77.4 km/h 59 % 0 mm 650.0 W/m2 CLR
12:02 -7.6 °C -12.2 °C 34533.8 hPa NW 64.7 km/h 64.7 km/h 58 % 0 mm 661.0 W/m2 CLR
12:07 -7.5 °C -12.2 °C 34533.8 hPa NW 67.3 km/h 67.3 km/h 58 % 0 mm 647.0 W/m2 CLR
12:12 -7.4 °C -12.1 °C 34533.8 hPa NW 80.5 km/h 80.5 km/h 58 % 0 mm 652.0 W/m2 CLR
12:17 -7.4 °C -12.1 °C 34533.8 hPa WNW 74.5 km/h 74.5 km/h 58 % 0 mm 673.0 W/m2 CLR
12:22 -7.3 °C -12.1 °C 34533.8 hPa WNW 53.6 km/h 53.6 km/h 58 % 0 mm 673.0 W/m2 CLR
12:28 -7.3 °C -12.1 °C 34533.8 hPa NW 68.6 km/h 68.6 km/h 57 % 0 mm 680.0 W/m2 CLR
12:33 -7.2 °C -11.7 °C 34544 hPa NW 77.4 km/h 77.4 km/h 59 % 0 mm 679.0 W/m2 CLR
12:38 -7.3 °C -11.7 °C 34533.8 hPa NNW 62.6 km/h 62.6 km/h 60 % 0 mm 689.0 W/m2 CLR
12:43 -7.3 °C -11.9 °C 34544 hPa NW 68.6 km/h 68.6 km/h 58 % 0 mm 687.0 W/m2 CLR
12:48 -7.3 °C -12.3 °C 34544 hPa NW 83.4 km/h 83.4 km/h 56 % 0 mm 701.0 W/m2 CLR
12:53 -7.3 °C -12.3 °C 34544 hPa NNW 89.3 km/h 89.3 km/h 56 % 0 mm 705.0 W/m2 CLR
12:58 -7.3 °C -12.2 °C 34533.8 hPa NW 62.1 km/h 62.1 km/h 57 % 0 mm 703.0 W/m2 CLR
13:03 -7.1 °C -11.8 °C 34554.1 hPa NNW 71.5 km/h 71.5 km/h 58 % 0 mm 686.0 W/m2 CLR
13:08 -7.2 °C -12 °C 34544 hPa NW 98.3 km/h 98.3 km/h 57 % 0 mm 737.0 W/m2 CLR
13:13 -7.2 °C -12.1 °C 34554.1 hPa NW 86.4 km/h 86.4 km/h 57 % 0 mm 773.0 W/m2 CLR
13:18 -7.3 °C -11.9 °C 34533.8 hPa NW 59.5 km/h 59.5 km/h 58 % 0 mm 279.0 W/m2 CLR
13:23 -7.2 °C -11.9 °C 34533.8 hPa NNW 68.6 km/h 68.6 km/h 58 % 0 mm 745.0 W/m2 CLR
13:28 -7.1 °C -11.5 °C 34533.8 hPa NW 44.7 km/h 44.7 km/h 60 % 0 mm 758.0 W/m2 CLR
13:33 -7 °C -12 °C 34533.8 hPa WNW 56.6 km/h 56.6 km/h 56 % 0 mm 724.0 W/m2 CLR
13:38 -7.1 °C -11.9 °C 34533.8 hPa NNW 65.5 km/h 65.5 km/h 57 % 0 mm 148.0 W/m2 CLR
13:43 -7.1 °C -11.8 °C 34533.8 hPa NW 68.6 km/h 68.6 km/h 58 % 0 mm 686.0 W/m2 CLR
13:48 -7.1 °C -12.1 °C 34544 hPa NNW 59.5 km/h 59.5 km/h 56 % 0 mm 98.0 W/m2 CLR
13:53 -7.3 °C -12.1 °C 34533.8 hPa NNW 64.7 km/h 64.7 km/h 57 % 0 mm 700.0 W/m2 CLR
13:58 -7.1 °C -12 °C 34533.8 hPa NW 65.5 km/h 65.5 km/h 57 % 0 mm 738.0 W/m2 CLR
14:03 -6.9 °C -11.8 °C 34544 hPa NW 68.6 km/h 68.6 km/h 57 % 0 mm 789.0 W/m2 CLR
14:08 -6.8 °C -12 °C 34544 hPa NW 53.6 km/h 53.6 km/h 55 % 0 mm 766.0 W/m2 CLR
14:13 -6.8 °C -12.3 °C 34533.8 hPa NW 89.3 km/h 89.3 km/h 53 % 0 mm 809.0 W/m2 CLR
14:18 -6.8 °C -11.9 °C 34544 hPa NNW 80.3 km/h 80.3 km/h 55 % 0 mm 789.0 W/m2 CLR
14:23 -6.8 °C -12.2 °C 34554.1 hPa NNW 65.5 km/h 65.5 km/h 54 % 0 mm 751.0 W/m2 CLR
14:28 -7 °C -12.3 °C 34544 hPa NNW 68.6 km/h 68.6 km/h 54 % 0 mm 642.0 W/m2 CLR
14:33 -7.1 °C -12.7 °C 34544 hPa NNW 92.4 km/h 92.4 km/h 52 % 0 mm 274.0 W/m2 CLR
14:38 -7.1 °C -12.4 °C 34544 hPa NNW 71.5 km/h 71.5 km/h 54 % 0 mm 652.0 W/m2 CLR
14:43 -7.1 °C -12.4 °C 34544 hPa NW 71.5 km/h 71.5 km/h 54 % 0 mm 599.0 W/m2 CLR
14:48 -7 °C -12.8 °C 34554.1 hPa NNW 92.4 km/h 92.4 km/h 51 % 0 mm 534.0 W/m2 CLR
14:53 -7 °C -12.3 °C 34554.1 hPa NNW 62.6 km/h 62.6 km/h 54 % 0 mm 640.0 W/m2 CLR
14:58 -7 °C -12.2 °C 34554.1 hPa WNW 51.8 km/h 51.8 km/h 55 % 0 mm 563.0 W/m2 CLR
15:03 -6.9 °C -12.2 °C 34554.1 hPa NNW 54.4 km/h 54.4 km/h 54 % 0 mm 506.0 W/m2 CLR
15:08 -6.9 °C -12.8 °C 34544 hPa NW 74.5 km/h 74.5 km/h 50 % 0 mm 524.0 W/m2 CLR
15:13 -6.9 °C -12.7 °C 34554.1 hPa NW 68.6 km/h 68.6 km/h 51 % 0 mm 497.0 W/m2 CLR
15:18 -7 °C -12.4 °C 34544 hPa NNW 59.5 km/h 59.5 km/h 53 % 0 mm 489.0 W/m2 CLR
15:23 -7 °C -12.6 °C 34544 hPa NW 71.5 km/h 71.5 km/h 52 % 0 mm 406.0 W/m2 CLR
15:28 -7.1 °C -12.7 °C 34554.1 hPa NNW 72.6 km/h 72.6 km/h 52 % 0 mm 446.0 W/m2 CLR
15:33 -7.1 °C -12.5 °C 34554.1 hPa North 59.5 km/h 59.5 km/h 53 % 0 mm 489.0 W/m2 CLR
15:38 -6.9 °C -12.4 °C 34554.1 hPa NNW 53.6 km/h 53.6 km/h 53 % 0 mm 429.0 W/m2 CLR
15:43 -7 °C -12.6 °C 34554.1 hPa NNW 50.7 km/h 50.7 km/h 52 % 0 mm 413.0 W/m2 CLR
15:48 -7.1 °C -12.3 °C 34554.1 hPa North 41.7 km/h 41.7 km/h 54 % 0 mm 218.0 W/m2 CLR
15:53 -7.1 °C -13 °C 34567.7 hPa NNW 62.6 km/h 62.6 km/h 50 % 0 mm 450.0 W/m2 CLR
15:58 -7.1 °C -13.2 °C 34567.7 hPa NNW 51.8 km/h 51.8 km/h 49 % 0 mm 332.0 W/m2 CLR
16:03 -7 °C -13.2 °C 34567.7 hPa NNW 62.1 km/h 62.1 km/h 48 % 0 mm 455.0 W/m2 CLR
16:08 -6.9 °C -13.5 °C 34577.8 hPa NNW 62.6 km/h 62.6 km/h 46 % 0 mm 445.0 W/m2 CLR
16:13 -6.9 °C -13.8 °C 34567.7 hPa NNW 71.5 km/h 71.5 km/h 45 % 0 mm 446.0 W/m2 CLR
16:18 -6.9 °C -13.9 °C 34567.7 hPa NNW 65.5 km/h 65.5 km/h 44 % 0 mm 420.0 W/m2 CLR
16:23 -7 °C -13.9 °C 34567.7 hPa NNW 77.4 km/h 77.4 km/h 44 % 0 mm 330.0 W/m2 CLR
16:28 -7 °C -13.7 °C 34567.7 hPa NNW 64.7 km/h 64.7 km/h 46 % 0 mm 394.0 W/m2 CLR
16:33 -7 °C -13.8 °C 34567.7 hPa NNW 69.8 km/h 69.8 km/h 45 % 0 mm 410.0 W/m2 CLR
16:38 -7 °C -13.8 °C 34577.8 hPa NNW 50.7 km/h 50.7 km/h 45 % 0 mm 339.0 W/m2 CLR
16:43 -6.9 °C -13.8 °C 34567.7 hPa NNW 59.5 km/h 59.5 km/h 45 % 0 mm 346.0 W/m2 CLR
16:48 -7 °C -13.8 °C 34577.8 hPa NNW 59.5 km/h 59.5 km/h 45 % 0 mm 285.0 W/m2 CLR
16:53 -7.1 °C -14.1 °C 34577.8 hPa NNW 74.5 km/h 74.5 km/h 44 % 0 mm 223.0 W/m2 CLR
16:58 -7.1 °C -13.8 °C 34577.8 hPa NNW 65.5 km/h 65.5 km/h 45 % 0 mm 366.0 W/m2 CLR
17:03 -7 °C -14.2 °C 34577.8 hPa NW 56.6 km/h 56.6 km/h 43 % 0 mm 279.0 W/m2 CLR
17:08 -7.1 °C -14.4 °C 34591.4 hPa NNW 62.6 km/h 62.6 km/h 42 % 0 mm 257.0 W/m2 CLR
17:13 -7.1 °C -14.4 °C 34577.8 hPa NW 49.2 km/h 49.2 km/h 42 % 0 mm 272.0 W/m2 CLR
17:18 -7.1 °C -14.2 °C 34591.4 hPa NNW 62.6 km/h 62.6 km/h 43 % 0 mm 267.0 W/m2 CLR
17:23 -7.1 °C -14.1 °C 34591.4 hPa NW 51.8 km/h 51.8 km/h 44 % 0 mm 220.0 W/m2 CLR
17:28 -7.1 °C -13.9 °C 34577.8 hPa NNW 47.6 km/h 47.6 km/h 45 % 0 mm 221.0 W/m2 CLR
17:33 -7.2 °C -13.6 °C 34591.4 hPa NNW 41.7 km/h 41.7 km/h 47 % 0 mm 197.0 W/m2 CLR
17:38 -7.3 °C -13.7 °C 34591.4 hPa NNW 38.8 km/h 38.8 km/h 47 % 0 mm 185.0 W/m2 CLR
17:43 -7.2 °C -13.5 °C 34591.4 hPa NW 38.8 km/h 38.8 km/h 48 % 0 mm 167.0 W/m2 CLR
17:48 -7.3 °C -13.3 °C 34591.4 hPa NNW 38.8 km/h 38.8 km/h 49 % 0 mm 155.0 W/m2 CLR
17:53 -7.3 °C -13.4 °C 34591.4 hPa North 53.6 km/h 53.6 km/h 49 % 0 mm 132.0 W/m2 CLR
17:58 -7.3 °C -13.4 °C 34591.4 hPa WNW 44.7 km/h 44.7 km/h 49 % 0 mm 113.0 W/m2 CLR
18:03 -7.4 °C -14.7 °C 34577.8 hPa North 62.6 km/h 62.6 km/h 42 % 0 mm 81.0 W/m2 CLR
18:08 -7.4 °C -14.9 °C 34591.4 hPa NW 53.6 km/h 53.6 km/h 41 % 0 mm 72.0 W/m2 FEW
18:13 -7.6 °C -15.2 °C 34591.4 hPa NW 47.6 km/h 47.6 km/h 40 % 0 mm 58.0 W/m2 SCT
18:18 -7.6 °C -15.5 °C 34591.4 hPa NW 53.6 km/h 53.6 km/h 39 % 0 mm 46.0 W/m2 SCT
18:23 -7.7 °C -15.6 °C 34591.4 hPa NNW 47.6 km/h 47.6 km/h 39 % 0 mm 35.0 W/m2 BKN
18:28 -7.8 °C -15.7 °C 34591.4 hPa North 44.7 km/h 44.7 km/h 39 % 0 mm 21.0 W/m2 BKN
18:33 -7.9 °C -15.6 °C 34601.5 hPa NW 41.7 km/h 41.7 km/h 40 % 0 mm 12.0 W/m2 BKN
18:38 -8 °C -15.4 °C 34601.5 hPa NNW 47.6 km/h 47.6 km/h 41 % 0 mm 9.0 W/m2 BKN
18:43 -8.1 °C -15.6 °C 34601.5 hPa NNW 29.8 km/h 29.8 km/h 41 % 0 mm 7.0 W/m2 BKN
18:48 -8.2 °C -15.1 °C 34611.7 hPa NNW 38.8 km/h 38.8 km/h 44 % 0 mm 5.0 W/m2 OVC
18:53 -8.4 °C -14.9 °C 34611.7 hPa North 47.6 km/h 47.6 km/h 46 % 0 mm 0.0 W/m2 OVC
18:58 -8.5 °C -14.8 °C 34625.2 hPa NNW 29.8 km/h 29.8 km/h 47 % 0 mm 0.0 W/m2 OVC
19:03 -8.7 °C -14.8 °C 34611.7 hPa NNW 38.8 km/h 38.8 km/h 48 % 0 mm 0.0 W/m2 CLR
19:04 -8.7 °C -14.8 °C 34611.7 hPa NNW 32.8 km/h 32.8 km/h 48 % 0 mm 0.0 W/m2 CLR
19:09 -8.7 °C -14.9 °C 34625.2 hPa NNW 44.1 km/h 44.1 km/h 48 % 0 mm 0.0 W/m2 CLR
19:14 -8.8 °C -14.9 °C 34625.2 hPa North 46.7 km/h 46.7 km/h 48 % 0 mm 0.0 W/m2 CLR
19:19 -8.8 °C -14.9 °C 34625.2 hPa NNW 41.4 km/h 41.4 km/h 48 % 0 mm 0.0 W/m2 CLR
19:24 -8.9 °C -15.1 °C 34625.2 hPa NNW 47.6 km/h 47.6 km/h 48 % 0 mm 0.0 W/m2 CLR
19:29 -9 °C -15.1 °C 34625.2 hPa NNW 47.6 km/h 47.6 km/h 48 % 0 mm 0.0 W/m2 CLR
19:34 -9.1 °C -15.1 °C 34625.2 hPa North 31.1 km/h 31.1 km/h 49 % 0 mm 0.0 W/m2 CLR
19:39 -9.3 °C -15.2 °C 34625.2 hPa NNW 47.6 km/h 47.6 km/h 49 % 0 mm 0.0 W/m2 CLR
19:44 -9.3 °C -15.2 °C 34635.4 hPa NNW 62.6 km/h 62.6 km/h 49 % 0 mm 0.0 W/m2 CLR
19:49 -9.3 °C -15.2 °C 34635.4 hPa NNW 41.7 km/h 41.7 km/h 49 % 0 mm 0.0 W/m2 CLR
19:54 -9.4 °C -15.3 °C 34635.4 hPa NNW 38.8 km/h 38.8 km/h 49 % 0 mm 0.0 W/m2 CLR
19:59 -9.5 °C -15.2 °C 34635.4 hPa NNW 41.7 km/h 41.7 km/h 50 % 0 mm 0.0 W/m2 CLR
20:04 -9.6 °C -15.3 °C 34635.4 hPa NNW 29.8 km/h 29.8 km/h 50 % 0 mm 0.0 W/m2 CLR
20:09 -9.7 °C -15.2 °C 34645.6 hPa NNW 29.8 km/h 29.8 km/h 51 % 0 mm 0.0 W/m2 CLR
20:14 -9.7 °C -15.3 °C 34645.6 hPa NNW 46.7 km/h 46.7 km/h 51 % 0 mm 0.0 W/m2 CLR
20:19 -9.8 °C -15.4 °C 34645.6 hPa NNW 41.7 km/h 41.7 km/h 50 % 0 mm 0.0 W/m2 CLR
20:24 -9.8 °C -15.4 °C 34645.6 hPa NW 41.7 km/h 41.7 km/h 51 % 0 mm 0.0 W/m2 CLR
20:29 -9.9 °C -15.3 °C 34645.6 hPa WNW 35.7 km/h 35.7 km/h 52 % 0 mm 0.0 W/m2 CLR
20:34 -10.1 °C -15.3 °C 34659.1 hPa WNW 41.4 km/h 41.4 km/h 53 % 0 mm 0.0 W/m2 CLR
20:39 -10.1 °C -15.3 °C 34659.1 hPa NNW 38.8 km/h 38.8 km/h 53 % 0 mm 0.0 W/m2 CLR
20:44 -10.2 °C -15.2 °C 34669.3 hPa WNW 29.8 km/h 29.8 km/h 55 % 0 mm 0.0 W/m2 CLR
20:49 -10.3 °C -15.2 °C 34669.3 hPa WNW 29.8 km/h 29.8 km/h 55 % 0 mm 0.0 W/m2 CLR
20:54 -10.3 °C -15.1 °C 34669.3 hPa NW 38.8 km/h 38.8 km/h 56 % 0 mm 0.0 W/m2 CLR
20:59 -10.3 °C -14.9 °C 34669.3 hPa NW 41.4 km/h 41.4 km/h 57 % 0 mm 0.0 W/m2 CLR
21:04 -10.2 °C -15.1 °C 34669.3 hPa NNW 44.7 km/h 44.7 km/h 56 % 0 mm 0.0 W/m2 CLR
21:09 -10.3 °C -14.9 °C 34682.8 hPa NW 23.8 km/h 23.8 km/h 57 % 0 mm 0.0 W/m2 CLR
21:14 -10.4 °C -14.9 °C 34682.8 hPa NNW 23.8 km/h 23.8 km/h 58 % 0 mm 0.0 W/m2 CLR
21:19 -10.5 °C -14.9 °C 34682.8 hPa NW 29.8 km/h 29.8 km/h 59 % 0 mm 0.0 W/m2 CLR
21:24 -10.7 °C -15 °C 34682.8 hPa NW 41.7 km/h 41.7 km/h 59 % 0 mm 0.0 W/m2 CLR
21:29 -10.7 °C -15.2 °C 34682.8 hPa NW 32.8 km/h 32.8 km/h 58 % 0 mm 0.0 W/m2 CLR
21:34 -10.7 °C -15.1 °C 34682.8 hPa NNW 29.8 km/h 29.8 km/h 59 % 0 mm 0.0 W/m2 CLR
21:40 -10.8 °C -15 °C 34682.8 hPa NW 32.8 km/h 32.8 km/h 60 % 0 mm 0.0 W/m2 CLR
21:45 -10.9 °C -15.2 °C 34682.8 hPa NNW 35.7 km/h 35.7 km/h 59 % 0 mm 0.0 W/m2 CLR
21:50 -10.8 °C -15.2 °C 34682.8 hPa NNW 44.7 km/h 44.7 km/h 59 % 0 mm 0.0 W/m2 CLR
21:55 -10.8 °C -15.2 °C 34682.8 hPa NW 33.6 km/h 33.6 km/h 59 % 0 mm 0.0 W/m2 CLR
22:00 -10.9 °C -15.1 °C 34693 hPa NNW 29.8 km/h 29.8 km/h 60 % 0 mm 0.0 W/m2 CLR
22:05 -11 °C -15.1 °C 34682.8 hPa NNW 29.8 km/h 29.8 km/h 61 % 0 mm 0.0 W/m2 CLR
22:10 -11.1 °C -15.1 °C 34682.8 hPa NW 26.9 km/h 26.9 km/h 61 % 0 mm 0.0 W/m2 CLR
22:15 -11.1 °C -15.2 °C 34682.8 hPa NNW 35.7 km/h 35.7 km/h 61 % 0 mm 0.0 W/m2 CLR
22:20 -11.1 °C -15.1 °C 34693 hPa NNW 41.7 km/h 41.7 km/h 62 % 0 mm 0.0 W/m2 CLR
22:25 -11.2 °C -15.1 °C 34693 hPa NNW 29.8 km/h 29.8 km/h 62 % 0 mm 0.0 W/m2 CLR
22:30 -11.3 °C -15.1 °C 34682.8 hPa NW 29.8 km/h 29.8 km/h 63 % 0 mm 0.0 W/m2 CLR
22:35 -11.4 °C -15.1 °C 34693 hPa NW 32.8 km/h 32.8 km/h 64 % 0 mm 0.0 W/m2 CLR
22:40 -11.4 °C -14.9 °C 34693 hPa WNW 29.8 km/h 29.8 km/h 65 % 0 mm 0.0 W/m2 CLR
22:43 -11.5 °C -15.1 °C 34693 hPa NW 20.9 km/h 20.9 km/h 65 % 0 mm 0.0 W/m2 CLR
22:46 -11.6 °C -14.9 °C 34693 hPa WNW 29.8 km/h 29.8 km/h 66 % 0 mm 0.0 W/m2 CLR
22:47 -11.6 °C -15 °C 34693 hPa NW 18.2 km/h 18.2 km/h 66 % 0 mm 0.0 W/m2 CLR
22:52 -11.6 °C -15.1 °C 34693 hPa WNW 26.9 km/h 26.9 km/h 66 % 0 mm 0.0 W/m2 CLR
22:57 -11.6 °C -15 °C 34693 hPa WNW 23.8 km/h 23.8 km/h 66 % 0 mm 0.0 W/m2 CLR
23:01 -11.6 °C -15 °C 34693 hPa WNW 29.8 km/h 29.8 km/h 66 % 0 mm 0.0 W/m2 CLR
23:06 -11.7 °C -15.1 °C 34693 hPa NW 29.8 km/h 29.8 km/h 66 % 0 mm 0.0 W/m2 CLR
23:11 -11.7 °C -15 °C 34693 hPa WNW 29.8 km/h 29.8 km/h 67 % 0 mm 0.0 W/m2 CLR
23:16 -11.8 °C -15.1 °C 34693 hPa WNW 32.8 km/h 32.8 km/h 67 % 0 mm 0.0 W/m2 CLR
23:21 -11.8 °C -15.2 °C 34693 hPa WNW 26.9 km/h 26.9 km/h 66 % 0 mm 0.0 W/m2 CLR
23:26 -11.8 °C -15.2 °C 34682.8 hPa NW 32.8 km/h 32.8 km/h 66 % 0 mm 0.0 W/m2 CLR
23:31 -11.7 °C -15.1 °C 34693 hPa WNW 29.8 km/h 29.8 km/h 66 % 0 mm 0.0 W/m2 CLR
23:36 -11.8 °C -15.2 °C 34693 hPa WNW 29.8 km/h 29.8 km/h 66 % 0 mm 0.0 W/m2 CLR
23:41 -11.8 °C -15.2 °C 34693 hPa WNW 29.8 km/h 29.8 km/h 66 % 0 mm 0.0 W/m2 CLR
23:46 -11.8 °C -15.2 °C 34693 hPa NW 41.4 km/h 41.4 km/h 66 % 0 mm 0.0 W/m2 CLR
23:51 -11.8 °C -15.2 °C 34693 hPa West 29.8 km/h 29.8 km/h 66 % 0 mm 0.0 W/m2 CLR
23:54 -11.7 °C -15.2 °C 34693 hPa West 29.8 km/h 29.8 km/h 65 % 0 mm 0.0 W/m2 CLR
23:59 -11.7 °C -15.3 °C 34693 hPa WNW 35.7 km/h 35.7 km/h 64 % 0 mm 0.0 W/m2 CLR
Lo Temps de Massalio
Compliments of Weather Underground - 1.25 mb